Aberdeen, Arkansas
Current Conditions -  °F | °C
As of 1:15 PM on Monday 22 Dec 2014 (Local Time) from KSGT Reporting Station
Overcast Overcast  
Wind Chill: 55°   Ceiling: 2300
Heat Index: 55°   Visibility: 7mi
Dew Point: 52°   Wind: 10mph
Humidity: 88%   Direction: 160°SSE
Pressure: 29.62"   Gusts: NA
Location:  34.6163°N, 91.3754°W
Report Text: KSGT 221915Z 16009KT 7SM SCT008 SCT011 OVC023 13/11 A2962 RMK AO1
Loading
Personal Weather Stations






























Interactive Weather Map New forecast layout! Learn more

10-Day Weather Forecast

Advertisements
Track Severe Weather on mobile